Weather at Sierra Vista Community Hospital Heliport

Public forecast

Using degrees Fahrenheit for public forecast. Weather courtesy of forecast.io.

Closest aviation weather report (METAR) to Sierra Vista Community Hospital Heliport

Closest report is Sierra Vista Municipal Airport / Libby Army Air Field, 4.5 nm (8.4 km) WNW. Retrieved 2021/06/20 01:58 UTC (35 minutes ago):

KFHU 200158Z AUTO 31016KT 10SM FEW150 SCT180 36/M00 A2990 RMK AO2 SLP030 T03641001

Closest aviation forecast (TAF) to Sierra Vista Community Hospital Heliport

Forecast is more than 12 hours old.

Closest forecast is Sierra Vista Municipal Airport / Libby Army Air Field, 4.5 nm (8.4 km) WNW. Retrieved 2021/06/18 14:08 UTC (2 days ago):

TAF KFHU 181400Z 1814/1920 14009KT 9999 FEW110 QNH2991INS TEMPO 1816/1901 12012G20KT 520005 BECMG 1901/1902 15010KT 9999 FEW110 QNH2993INS WND 23009KT AFT 1907 BECMG 1917/1918 32012G18KT 9999 BKN120 QNH2995INS TX39/1821Z TN23/1912Z LAST NO AMDS AFT 1822 NEXT 2106